createdAt,value
2018-12-15T00:02:10.107Z,5.93
2018-12-15T00:04:38.536Z,4.90
2018-12-15T00:07:06.994Z,7.23
2018-12-15T00:09:35.368Z,5.37
2018-12-15T00:12:03.800Z,5.93
2018-12-15T00:14:32.341Z,5.40
2018-12-15T00:17:05.709Z,5.17
2018-12-15T00:19:31.764Z,6.00
2018-12-15T00:22:00.159Z,5.33
2018-12-15T00:24:28.565Z,6.20
2018-12-15T00:26:56.972Z,5.37
2018-12-15T00:29:25.380Z,5.27
2018-12-15T00:31:54.698Z,5.50
2018-12-15T00:34:23.710Z,8.90
2018-12-15T00:36:52.094Z,7.07
2018-12-15T00:39:21.082Z,5.27
2018-12-15T00:41:49.472Z,5.83
2018-12-15T00:44:18.036Z,5.63
2018-12-15T00:46:46.996Z,5.53
2018-12-15T00:49:15.465Z,5.13
2018-12-15T00:51:43.899Z,6.50
2018-12-15T00:54:12.638Z,4.90
2018-12-15T00:56:41.704Z,4.90
2018-12-15T00:59:10.129Z,5.57
2018-12-15T01:01:38.512Z,6.90
2018-12-15T01:04:06.922Z,6.50
2018-12-15T01:06:35.304Z,7.70
2018-12-15T01:09:05.037Z,5.67
2018-12-15T01:11:33.884Z,7.90
2018-12-15T01:14:02.267Z,6.73
2018-12-15T01:16:30.652Z,6.33
2018-12-15T01:18:59.132Z,6.83
2018-12-15T01:21:27.560Z,5.93
2018-12-15T01:23:55.965Z,7.00
2018-12-15T01:26:24.380Z,7.37
2018-12-15T01:28:52.769Z,6.47
2018-12-15T01:31:21.141Z,9.27
2018-12-15T01:33:49.637Z,6.17
2018-12-15T01:36:18.040Z,7.13
2018-12-15T01:38:46.419Z,6.07
2018-12-15T01:41:14.968Z,6.27
2018-12-15T01:43:43.817Z,5.93
2018-12-15T01:46:12.191Z,6.57
2018-12-15T01:48:40.605Z,6.33
2018-12-15T01:51:09.052Z,6.00
2018-12-15T01:53:37.446Z,6.93
2018-12-15T01:56:06.313Z,7.83
2018-12-15T01:58:34.797Z,6.57
2018-12-15T02:01:03.274Z,6.20
2018-12-15T02:03:31.708Z,5.37
2018-12-15T02:06:00.120Z,7.07
2018-12-15T02:08:28.528Z,5.80
2018-12-15T02:10:56.935Z,6.33
2018-12-15T02:13:25.325Z,6.63
2018-12-15T02:15:53.734Z,6.27
2018-12-15T02:18:22.143Z,5.73
2018-12-15T02:20:50.547Z,6.43
2018-12-15T02:23:18.938Z,6.57
2018-12-15T02:25:47.361Z,5.93
2018-12-15T02:28:15.773Z,4.70
2018-12-15T02:30:44.413Z,5.90
2018-12-15T02:33:12.825Z,5.27
2018-12-15T02:35:41.231Z,7.20
2018-12-15T02:38:09.613Z,6.73
2018-12-15T02:40:38.070Z,7.37
2018-12-15T02:43:06.457Z,6.43
2018-12-15T02:45:34.959Z,6.20
2018-12-15T02:48:03.623Z,8.03
2018-12-15T02:50:34.993Z,6.10
2018-12-15T02:53:03.413Z,6.70
2018-12-15T02:55:31.807Z,6.73
2018-12-15T02:58:00.485Z,7.40
2018-12-15T03:00:29.156Z,9.33
2018-12-15T03:02:57.558Z,6.30
2018-12-15T03:05:25.977Z,7.97
2018-12-15T03:07:54.397Z,7.93
2018-12-15T03:10:22.785Z,7.73
2018-12-15T03:12:52.181Z,7.27
2018-12-15T03:15:20.580Z,9.37
2018-12-15T03:17:49.473Z,9.37
2018-12-15T03:20:17.864Z,9.10
2018-12-15T03:22:47.336Z,8.43
2018-12-15T03:25:15.749Z,9.17
2018-12-15T03:27:44.148Z,8.63
2018-12-15T03:30:12.615Z,9.30
2018-12-15T03:32:41.258Z,12.93
2018-12-15T03:35:09.800Z,8.07
2018-12-15T03:37:38.672Z,10.37
2018-12-15T03:40:07.067Z,9.70
2018-12-15T03:42:35.772Z,9.30
2018-12-15T03:45:04.778Z,9.47
2018-12-15T03:47:33.179Z,10.00
2018-12-15T03:50:01.728Z,9.83
2018-12-15T03:52:30.170Z,8.50
2018-12-15T03:54:59.544Z,9.40
2018-12-15T03:57:28.473Z,11.57
2018-12-15T03:59:57.128Z,9.37
2018-12-15T04:02:25.980Z,10.20
2018-12-15T04:04:54.791Z,9.63
2018-12-15T04:07:23.248Z,10.37
2018-12-15T04:09:51.861Z,7.83
2018-12-15T04:12:20.275Z,8.93
2018-12-15T04:14:48.764Z,9.77
2018-12-15T04:17:17.153Z,8.20
2018-12-15T04:19:45.543Z,8.20
2018-12-15T04:22:20.020Z,9.07
2018-12-15T04:24:48.423Z,9.27
2018-12-15T04:27:16.805Z,8.70
2018-12-15T04:29:45.241Z,8.17
2018-12-15T04:32:13.620Z,9.60
2018-12-15T04:34:42.028Z,10.00
2018-12-15T04:37:10.460Z,10.50
2018-12-15T04:39:38.989Z,8.20
2018-12-15T04:42:07.470Z,9.30
2018-12-15T04:44:35.889Z,9.17
2018-12-15T04:47:04.534Z,9.07
2018-12-15T04:49:32.909Z,9.57
2018-12-15T04:52:01.310Z,8.37
2018-12-15T04:54:29.806Z,8.03
2018-12-15T04:56:58.202Z,7.43
2018-12-15T04:59:26.626Z,6.87
2018-12-15T05:01:55.287Z,8.33
2018-12-15T05:04:24.032Z,8.70
2018-12-15T05:06:52.517Z,9.07
2018-12-15T05:09:20.896Z,8.70
2018-12-15T05:11:49.284Z,7.97
2018-12-15T05:14:18.073Z,8.20
2018-12-15T05:16:46.498Z,6.90
2018-12-15T05:19:14.886Z,8.37
2018-12-15T05:21:43.368Z,7.13
2018-12-15T05:24:11.765Z,7.53
2018-12-15T05:26:40.831Z,8.10
2018-12-15T05:29:09.249Z,8.50
2018-12-15T05:31:37.663Z,5.77
2018-12-15T05:34:06.046Z,7.23
2018-12-15T05:36:34.464Z,9.70
2018-12-15T05:39:02.970Z,6.10
2018-12-15T05:41:31.397Z,6.93
2018-12-15T05:43:59.879Z,7.07
2018-12-15T05:46:28.261Z,8.00
2018-12-15T05:48:56.754Z,7.47
2018-12-15T05:51:25.186Z,6.67
2018-12-15T05:53:53.642Z,6.80
2018-12-15T05:56:22.028Z,7.23
2018-12-15T05:58:51.948Z,9.67
2018-12-15T06:01:20.345Z,8.67
2018-12-15T06:03:48.905Z,9.13
2018-12-15T06:06:17.461Z,10.13
2018-12-15T06:08:45.855Z,10.07
2018-12-15T06:11:14.231Z,7.97
2018-12-15T06:13:42.644Z,8.50
2018-12-15T06:16:11.128Z,8.07
2018-12-15T06:18:39.532Z,10.90
2018-12-15T06:21:08.009Z,8.23
2018-12-15T06:23:36.454Z,8.80
2018-12-15T06:26:04.983Z,8.10
2018-12-15T06:28:33.572Z,7.67
2018-12-15T06:31:02.005Z,7.60
2018-12-15T06:33:30.390Z,10.43
2018-12-15T06:35:58.807Z,9.73
2018-12-15T06:38:27.184Z,9.80
2018-12-15T06:40:55.585Z,9.53
2018-12-15T06:43:24.557Z,9.67
2018-12-15T06:45:52.957Z,9.83
2018-12-15T06:48:21.428Z,9.97
2018-12-15T06:50:49.874Z,8.00
2018-12-15T06:53:18.274Z,8.73
2018-12-15T06:55:46.704Z,9.27
2018-12-15T06:58:15.135Z,8.63
2018-12-15T07:00:43.564Z,8.47
2018-12-15T07:03:11.957Z,10.23
2018-12-15T07:05:40.660Z,9.87
2018-12-15T07:08:09.196Z,8.60
2018-12-15T07:10:37.563Z,8.77
2018-12-15T07:13:05.978Z,8.07
2018-12-15T07:15:34.385Z,8.87
2018-12-15T07:18:03.017Z,9.03
2018-12-15T07:20:31.445Z,9.47
2018-12-15T07:22:59.903Z,10.00
2018-12-15T07:25:28.612Z,9.53
2018-12-15T07:27:57.140Z,9.73
2018-12-15T07:30:25.849Z,10.00
2018-12-15T07:32:54.829Z,10.27
2018-12-15T07:35:23.308Z,10.00
2018-12-15T07:37:51.705Z,9.70
2018-12-15T07:40:20.358Z,9.53
2018-12-15T07:42:48.791Z,9.13
2018-12-15T07:45:17.331Z,9.27
2018-12-15T07:47:45.710Z,8.30
2018-12-15T07:50:14.130Z,8.97
2018-12-15T07:52:42.516Z,8.93
2018-12-15T07:55:10.924Z,9.23
2018-12-15T07:57:39.362Z,8.67
2018-12-15T08:00:09.262Z,7.70
2018-12-15T08:02:38.005Z,12.20
2018-12-15T08:05:07.180Z,8.70
2018-12-15T08:07:35.926Z,9.80
2018-12-15T08:10:05.679Z,7.70
2018-12-15T08:12:39.478Z,7.73
2018-12-15T08:15:09.245Z,9.43
2018-12-15T08:17:37.685Z,7.87
2018-12-15T08:20:08.867Z,10.97
2018-12-15T08:22:37.388Z,10.40
2018-12-15T08:25:06.944Z,9.23
2018-12-15T08:27:35.360Z,8.13
2018-12-15T08:30:04.465Z,8.10
2018-12-15T08:32:32.998Z,8.93
2018-12-15T08:35:01.736Z,10.23
2018-12-15T08:37:30.122Z,12.50
2018-12-15T08:39:58.538Z,7.53
2018-12-15T08:42:27.091Z,9.97
2018-12-15T08:44:55.595Z,8.20
2018-12-15T08:47:24.877Z,8.97
2018-12-15T08:49:56.266Z,8.83
2018-12-15T08:52:24.651Z,9.73
2018-12-15T08:54:53.800Z,9.63
2018-12-15T08:57:25.339Z,9.87
2018-12-15T08:59:54.646Z,10.83
2018-12-15T09:02:23.128Z,9.53
2018-12-15T09:04:53.658Z,9.67
2018-12-15T09:07:22.193Z,9.07
2018-12-15T09:09:50.819Z,8.57
2018-12-15T09:12:19.442Z,9.27
2018-12-15T09:14:47.892Z,7.57
2018-12-15T09:17:16.276Z,9.43
2018-12-15T09:19:44.749Z,10.30
2018-12-15T09:22:13.175Z,9.20
2018-12-15T09:24:41.600Z,8.87
2018-12-15T09:27:10.022Z,9.77
2018-12-15T09:29:38.524Z,10.53
2018-12-15T09:32:07.052Z,10.10
2018-12-15T09:34:36.266Z,10.90
2018-12-15T09:37:05.001Z,10.13
2018-12-15T09:39:33.457Z,11.97
2018-12-15T09:42:01.902Z,12.23
2018-12-15T09:44:31.595Z,12.73
2018-12-15T09:47:06.383Z,12.97
2018-12-15T09:49:34.817Z,13.43
2018-12-15T09:52:03.385Z,13.40
2018-12-15T09:54:31.802Z,16.10
2018-12-15T09:57:00.712Z,13.03
2018-12-15T09:59:29.270Z,13.03
2018-12-15T10:01:58.377Z,14.53
2018-12-15T10:04:26.841Z,15.87
2018-12-15T10:06:55.232Z,14.10
2018-12-15T10:09:23.741Z,14.80
2018-12-15T10:11:52.326Z,14.43
2018-12-15T10:14:20.823Z,15.23
2018-12-15T10:16:49.232Z,17.43
2018-12-15T10:19:24.089Z,16.73
2018-12-15T10:21:48.205Z,15.50
2018-12-15T10:24:16.595Z,14.47
2018-12-15T10:26:44.993Z,14.30
2018-12-15T10:29:18.431Z,14.87
2018-12-15T10:31:52.392Z,12.27
2018-12-15T10:34:21.004Z,11.83
2018-12-15T10:36:49.816Z,14.00
2018-12-15T10:39:18.278Z,12.43
2018-12-15T10:41:46.868Z,12.13
2018-12-15T10:44:15.268Z,12.27
2018-12-15T10:46:43.896Z,11.17
2018-12-15T10:49:12.311Z,11.20
2018-12-15T10:51:40.918Z,10.40
2018-12-15T10:54:09.456Z,9.97
2018-12-15T10:56:37.926Z,9.60
2018-12-15T10:59:06.675Z,10.10
2018-12-15T11:01:36.769Z,9.17
2018-12-15T11:04:06.449Z,9.20
2018-12-15T11:06:34.888Z,11.00
2018-12-15T11:09:04.326Z,8.17
2018-12-15T11:11:32.819Z,8.27
2018-12-15T11:14:01.489Z,8.43
2018-12-15T11:16:30.076Z,10.13
2018-12-15T11:18:58.455Z,9.40
2018-12-15T11:21:26.841Z,10.40
2018-12-15T11:23:56.189Z,11.40
2018-12-15T11:26:24.589Z,9.10
2018-12-15T11:28:53.030Z,9.80
2018-12-15T11:31:25.132Z,10.67
2018-12-15T11:33:56.662Z,7.33
2018-12-15T11:36:25.493Z,9.53
2018-12-15T11:38:58.122Z,9.67
2018-12-15T11:41:26.578Z,9.60
2018-12-15T11:43:54.982Z,10.80
2018-12-15T11:46:23.480Z,12.53
2018-12-15T11:48:51.944Z,11.83
2018-12-15T11:51:20.381Z,12.23
2018-12-15T11:53:48.813Z,8.77
2018-12-15T11:56:19.327Z,9.00
2018-12-15T11:58:48.438Z,9.77
2018-12-15T12:01:16.955Z,10.00
2018-12-15T12:03:45.631Z,8.33
2018-12-15T12:06:14.111Z,9.27
2018-12-15T12:08:42.544Z,10.10
2018-12-15T12:11:10.989Z,9.77
2018-12-15T12:13:39.392Z,9.00
2018-12-15T12:16:07.936Z,9.10
2018-12-15T12:18:36.923Z,11.53
2018-12-15T12:21:05.457Z,12.70
2018-12-15T12:23:33.949Z,8.63
2018-12-15T12:26:02.530Z,9.07
2018-12-15T12:28:31.697Z,9.80
2018-12-15T12:31:00.129Z,8.47
2018-12-15T12:33:28.612Z,9.23
2018-12-15T12:35:57.017Z,9.00
2018-12-15T12:38:25.509Z,8.83
2018-12-15T12:40:54.178Z,10.07
2018-12-15T12:43:23.418Z,9.70
2018-12-15T12:45:52.490Z,7.27
2018-12-15T12:48:21.014Z,11.30
2018-12-15T12:50:49.398Z,9.77
2018-12-15T12:53:17.810Z,8.73
2018-12-15T12:55:46.389Z,8.63
2018-12-15T12:58:14.785Z,11.33
2018-12-15T13:00:43.321Z,10.33
2018-12-15T13:03:11.752Z,9.00
2018-12-15T13:05:40.152Z,8.90
2018-12-15T13:08:08.544Z,9.80
2018-12-15T13:10:37.081Z,9.83
2018-12-15T13:13:05.461Z,10.87
2018-12-15T13:15:34.011Z,8.40
2018-12-15T13:18:02.608Z,9.80
2018-12-15T13:20:31.257Z,11.00
2018-12-15T13:22:59.683Z,11.23
2018-12-15T13:25:28.095Z,12.77
2018-12-15T13:27:56.484Z,12.13
2018-12-15T13:30:25.164Z,11.97
2018-12-15T13:32:53.676Z,12.97
2018-12-15T13:35:22.321Z,11.07
2018-12-15T13:37:50.990Z,12.13
2018-12-15T13:40:19.506Z,9.57
2018-12-15T13:42:47.932Z,9.97
2018-12-15T13:45:16.312Z,10.87
2018-12-15T13:47:44.992Z,11.13
2018-12-15T13:50:17.529Z,9.87
2018-12-15T13:52:46.217Z,11.00
2018-12-15T13:55:14.785Z,10.77
2018-12-15T13:57:43.395Z,12.83
2018-12-15T14:00:11.953Z,11.60
2018-12-15T14:02:40.364Z,11.30
2018-12-15T14:05:08.914Z,13.23
2018-12-15T14:07:37.857Z,12.10
2018-12-15T14:10:06.571Z,16.03
2018-12-15T14:12:35.054Z,12.13
2018-12-15T14:15:03.843Z,10.97
2018-12-15T14:17:32.221Z,9.90
2018-12-15T14:20:00.826Z,10.93
2018-12-15T14:22:29.971Z,12.97
2018-12-15T14:24:58.397Z,9.30
2018-12-15T14:27:26.796Z,10.83
2018-12-15T14:29:55.225Z,9.47
2018-12-15T14:32:23.601Z,13.80
2018-12-15T14:34:54.964Z,10.73
2018-12-15T14:37:23.424Z,11.27
2018-12-15T14:39:51.832Z,12.03
2018-12-15T14:42:20.237Z,11.43
2018-12-15T14:44:49.750Z,13.37
2018-12-15T14:47:18.150Z,11.93
2018-12-15T14:49:46.599Z,10.47
2018-12-15T14:52:15.041Z,15.20
2018-12-15T14:54:43.500Z,12.80
2018-12-15T14:57:11.903Z,14.03
2018-12-15T14:59:50.472Z,11.90
2018-12-15T15:02:18.900Z,10.13
2018-12-15T15:04:47.291Z,13.37
2018-12-15T15:07:15.723Z,11.87
2018-12-15T15:09:44.553Z,12.90
2018-12-15T15:12:13.133Z,11.17
2018-12-15T15:14:41.661Z,11.40
2018-12-15T15:17:10.063Z,12.27
2018-12-15T15:19:38.456Z,11.67
2018-12-15T15:22:07.158Z,11.10
2018-12-15T15:24:35.776Z,9.60
2018-12-15T15:27:04.429Z,10.53
2018-12-15T15:29:32.868Z,11.73
2018-12-15T15:32:02.009Z,11.50
2018-12-15T15:34:30.393Z,11.40
2018-12-15T15:36:58.842Z,12.63
2018-12-15T15:39:27.509Z,10.07
2018-12-15T15:41:55.996Z,10.53
2018-12-15T15:44:24.457Z,10.10
2018-12-15T15:46:52.940Z,13.03
2018-12-15T15:49:21.376Z,10.13
2018-12-15T15:51:49.793Z,10.77
2018-12-15T15:54:18.289Z,9.50
2018-12-15T15:56:46.771Z,10.70
2018-12-15T15:59:15.456Z,9.73
2018-12-15T16:01:44.089Z,10.50
2018-12-15T16:04:12.571Z,9.90
2018-12-15T16:06:41.000Z,9.40
2018-12-15T16:09:10.280Z,8.67
2018-12-15T16:11:39.281Z,8.83
2018-12-15T16:14:07.696Z,11.23
2018-12-15T16:16:36.868Z,10.03
2018-12-15T16:19:05.366Z,9.40
2018-12-15T16:21:33.845Z,11.23
2018-12-15T16:24:02.853Z,9.67
2018-12-15T16:26:31.336Z,11.47
2018-12-15T16:29:00.297Z,9.80
2018-12-15T16:31:28.935Z,10.33
2018-12-15T16:33:57.531Z,10.07
2018-12-15T16:36:25.979Z,10.33
2018-12-15T16:38:54.668Z,9.87
2018-12-15T16:41:23.121Z,9.63
2018-12-15T16:43:51.686Z,10.17
2018-12-15T16:46:20.792Z,9.63
2018-12-15T16:48:49.224Z,9.77
2018-12-15T16:51:17.743Z,9.83
2018-12-15T16:53:46.478Z,9.83
2018-12-15T16:56:15.323Z,12.27
2018-12-15T16:58:43.850Z,10.40
2018-12-15T17:01:12.847Z,14.17
2018-12-15T17:03:41.248Z,10.57
2018-12-15T17:06:09.828Z,10.17
2018-12-15T17:08:38.589Z,10.27
2018-12-15T17:11:06.977Z,13.30
2018-12-15T17:13:35.825Z,12.17
2018-12-15T17:16:04.953Z,12.37
2018-12-15T17:18:33.357Z,10.40
2018-12-15T17:21:02.128Z,14.87
2018-12-15T17:23:30.940Z,11.33
2018-12-15T17:26:00.669Z,11.03
2018-12-15T17:28:30.812Z,13.40
2018-12-15T17:31:00.946Z,11.17
2018-12-15T17:33:29.392Z,11.83
2018-12-15T17:35:58.017Z,12.23
2018-12-15T17:38:27.158Z,10.10
2018-12-15T17:40:55.585Z,10.37
2018-12-15T17:43:24.596Z,11.77
2018-12-15T17:45:53.479Z,11.47
2018-12-15T17:48:23.905Z,14.63
2018-12-15T17:50:54.047Z,10.40
2018-12-15T17:53:22.541Z,11.53
2018-12-15T17:55:50.938Z,13.20
2018-12-15T17:58:19.424Z,12.17
2018-12-15T18:00:48.361Z,11.40
2018-12-15T18:03:17.514Z,10.20
2018-12-15T18:05:47.302Z,11.37
2018-12-15T18:08:16.614Z,10.70
2018-12-15T18:10:45.069Z,15.83
2018-12-15T18:13:14.112Z,10.63
2018-12-15T18:15:42.768Z,12.53
2018-12-15T18:18:11.181Z,13.63
2018-12-15T18:20:39.617Z,12.97
2018-12-15T18:23:08.368Z,13.10
2018-12-15T18:25:36.907Z,10.53
2018-12-15T18:28:05.784Z,12.53
2018-12-15T18:30:35.043Z,13.27
2018-12-15T18:33:03.574Z,13.93
2018-12-15T18:35:33.645Z,10.60
2018-12-15T18:38:03.011Z,12.50
2018-12-15T18:40:31.484Z,14.90
2018-12-15T18:43:00.350Z,12.53
2018-12-15T18:45:28.997Z,14.83
2018-12-15T18:47:57.468Z,14.13
2018-12-15T18:50:26.493Z,14.33
2018-12-15T18:52:55.216Z,13.00
2018-12-15T18:55:23.621Z,14.40
2018-12-15T18:57:52.482Z,11.77
2018-12-15T19:00:20.979Z,13.40
2018-12-15T19:02:49.857Z,14.70
2018-12-15T19:05:18.344Z,11.33
2018-12-15T19:07:46.959Z,14.33
2018-12-15T19:10:17.619Z,11.47
2018-12-15T19:12:46.174Z,12.97
2018-12-15T19:15:14.842Z,11.53
2018-12-15T19:17:43.248Z,12.50
2018-12-15T19:20:11.845Z,10.77
2018-12-15T19:22:40.804Z,11.80
2018-12-15T19:25:09.427Z,11.57
2018-12-15T19:27:38.008Z,12.70
2018-12-15T19:30:07.592Z,11.13
2018-12-15T19:32:36.125Z,11.37
2018-12-15T19:35:05.600Z,12.53
2018-12-15T19:37:34.200Z,11.33
2018-12-15T19:40:02.674Z,14.10
2018-12-15T19:42:35.292Z,10.87
2018-12-15T19:45:05.619Z,11.93
2018-12-15T19:47:34.212Z,12.17
2018-12-15T19:50:02.923Z,12.60
2018-12-15T19:52:32.567Z,14.17
2018-12-15T19:55:01.101Z,11.60
2018-12-15T19:57:29.684Z,12.40
2018-12-15T19:59:58.112Z,12.40
2018-12-15T20:02:26.625Z,13.13
2018-12-15T20:04:55.333Z,12.23
2018-12-15T20:07:23.878Z,12.37
2018-12-15T20:09:52.369Z,12.87
2018-12-15T20:12:21.012Z,11.70
2018-12-15T20:14:50.057Z,12.27
2018-12-15T20:17:19.094Z,11.80
2018-12-15T20:19:49.173Z,12.10
2018-12-15T20:22:17.881Z,13.43
2018-12-15T20:24:46.774Z,10.60
2018-12-15T20:27:16.674Z,10.80
2018-12-15T20:29:45.613Z,12.30
2018-12-15T20:32:14.430Z,11.40
2018-12-15T20:34:43.129Z,10.80
2018-12-15T20:37:12.012Z,11.83
2018-12-15T20:39:40.445Z,11.97
2018-12-15T20:42:09.257Z,12.00
2018-12-15T20:44:41.719Z,11.10
2018-12-15T20:47:08.349Z,10.93
2018-12-15T20:49:36.988Z,11.87
2018-12-15T20:52:05.419Z,11.07
2018-12-15T20:54:34.474Z,10.63
2018-12-15T20:57:03.066Z,10.77
2018-12-15T20:59:31.473Z,10.67
2018-12-15T21:02:00.036Z,13.13
2018-12-15T21:04:28.593Z,12.73
2018-12-15T21:06:57.003Z,11.73
2018-12-15T21:09:26.394Z,10.70
2018-12-15T21:11:55.257Z,10.73
2018-12-15T21:14:23.669Z,12.20
2018-12-15T21:16:52.318Z,12.43
2018-12-15T21:19:20.813Z,13.83
2018-12-15T21:21:49.745Z,12.67
2018-12-15T21:24:18.747Z,11.50
2018-12-15T21:26:47.363Z,12.13
2018-12-15T21:29:15.791Z,11.67
2018-12-15T21:31:44.294Z,11.83
2018-12-15T21:34:13.220Z,11.37
2018-12-15T21:36:41.645Z,10.27
2018-12-15T21:39:10.256Z,10.47
2018-12-15T21:41:39.090Z,9.87
2018-12-15T21:44:07.524Z,10.30
2018-12-15T21:46:35.995Z,11.83
2018-12-15T21:49:04.646Z,10.77
2018-12-15T21:51:33.102Z,11.07
2018-12-15T21:54:02.119Z,11.27
2018-12-15T21:56:30.804Z,8.80
2018-12-15T21:58:59.342Z,9.33
2018-12-15T22:01:27.800Z,10.80
2018-12-15T22:03:56.433Z,10.37
2018-12-15T22:06:24.866Z,11.93
2018-12-15T22:08:53.519Z,10.90
2018-12-15T22:11:22.190Z,12.37
2018-12-15T22:13:50.589Z,13.20
2018-12-15T22:16:19.212Z,9.23
2018-12-15T22:18:47.838Z,9.23
2018-12-15T22:21:16.315Z,9.33
2018-12-15T22:23:45.337Z,9.67
2018-12-15T22:26:13.982Z,8.93
2018-12-15T22:28:42.700Z,11.07
2018-12-15T22:31:11.838Z,8.80
2018-12-15T22:33:40.412Z,8.53
2018-12-15T22:36:09.515Z,9.73
2018-12-15T22:38:38.049Z,8.90
2018-12-15T22:41:06.670Z,8.17
2018-12-15T22:43:35.271Z,10.40
2018-12-15T22:46:03.832Z,9.77
2018-12-15T22:48:32.565Z,10.73
2018-12-15T22:51:01.041Z,9.47
2018-12-15T22:53:30.445Z,9.17
2018-12-15T22:55:58.962Z,9.83
2018-12-15T22:58:27.612Z,9.40
2018-12-15T23:01:01.619Z,9.43
2018-12-15T23:03:30.105Z,8.57
2018-12-15T23:05:58.567Z,9.00
2018-12-15T23:08:27.535Z,9.67
2018-12-15T23:10:55.983Z,10.90
2018-12-15T23:13:24.598Z,9.03
2018-12-15T23:15:53.193Z,8.90
2018-12-15T23:18:21.609Z,8.60
2018-12-15T23:20:50.251Z,9.40
2018-12-15T23:23:18.905Z,10.27
2018-12-15T23:25:47.296Z,9.83
2018-12-15T23:28:15.675Z,8.83
2018-12-15T23:30:44.467Z,9.30
2018-12-15T23:33:12.948Z,10.03
2018-12-15T23:35:41.366Z,11.53
2018-12-15T23:38:10.222Z,8.37
2018-12-15T23:40:38.654Z,8.83
2018-12-15T23:43:07.093Z,8.10
2018-12-15T23:45:36.033Z,9.97
2018-12-15T23:48:04.576Z,9.17
2018-12-15T23:50:32.983Z,9.87
2018-12-15T23:53:01.960Z,10.87
2018-12-15T23:55:30.357Z,9.13
2018-12-15T23:57:58.774Z,10.27
